Terminal Aerodrome Forecast
Issued by NWS Melbourne, FL

Home | Current Version | Previous Version | Text Only | Print | Product List | Glossary On
Versions: 1 2 3 4 5 6 7 8 9 10 11 12 13 14 15 16 17 18 19 20
000
FTUS42 KMLB 200541
TAFDAB
TAF
KDAB 200541Z 2006/2106 22004KT P6SM FEW004 FEW200
     FM200900 22004KT 4SM BR SCT005 BKN150
     FM201400 21008KT P6SM FEW040 SCT100 BKN250
     FM210000 22004KT P6SM BKN200=

USA.gov is the U.S. government's official web portal to all federal, state and local government web resources and services.